createdAt,value
2023-04-12T00:01:33.997Z,1002.03
2023-04-12T00:07:54.012Z,1001.93
2023-04-12T00:14:17.019Z,1001.78
2023-04-12T00:20:36.986Z,1001.68
2023-04-12T00:27:00.031Z,1001.54
2023-04-12T00:33:20.038Z,1001.48
2023-04-12T00:39:42.990Z,1001.38
2023-04-12T00:46:03.009Z,1001.19
2023-04-12T00:52:26.061Z,1001.07
2023-04-12T00:58:45.972Z,1000.91
2023-04-12T01:05:09.024Z,1000.74
2023-04-12T01:11:29.029Z,1000.66
2023-04-12T01:17:52.009Z,1000.54
2023-04-12T01:24:12.006Z,1000.39
2023-04-12T01:30:35.026Z,1000.22
2023-04-12T01:36:54.982Z,1000.09
2023-04-12T01:43:17.994Z,1000.01
2023-04-12T01:49:38.063Z,999.93
2023-04-12T01:56:00.980Z,999.81
2023-04-12T02:02:21.086Z,999.64
2023-04-12T02:08:44.010Z,999.48
2023-04-12T02:15:04.011Z,999.3
2023-04-12T02:21:27.003Z,999.18
2023-04-12T02:27:47.004Z,999.09
2023-04-12T02:34:09.991Z,998.93
2023-04-12T02:40:30.001Z,998.81
2023-04-12T02:46:53.013Z,998.68
2023-04-12T02:53:12.987Z,998.56
2023-04-12T02:59:35.988Z,998.36
2023-04-12T03:05:56.100Z,998.19
2023-04-12T03:12:19.050Z,998.01
2023-04-12T03:18:38.992Z,997.79
2023-04-12T03:41:10.018Z,997.2
2023-04-12T03:47:33.009Z,997.02
2023-04-12T03:53:53.010Z,996.89
2023-04-12T04:00:16.005Z,996.75
2023-04-12T04:06:36.009Z,996.65
2023-04-12T04:12:58.978Z,996.46
2023-04-12T04:19:19.409Z,996.26
2023-04-12T04:25:42.020Z,996.14
2023-04-12T04:32:02.056Z,995.97
2023-04-12T04:38:25.047Z,995.81
2023-04-12T04:44:45.005Z,995.71
2023-04-12T04:51:08.003Z,995.61
2023-04-12T04:57:28.016Z,995.59
2023-04-12T05:03:51.037Z,995.52
2023-04-12T05:10:11.020Z,995.46
2023-04-12T05:16:34.018Z,995.4
2023-04-12T05:22:54.001Z,995.34
2023-04-12T05:29:16.981Z,995.28
2023-04-12T05:35:37.038Z,995.06
2023-04-12T05:42:00.040Z,994.94
2023-04-12T05:48:19.971Z,994.81
2023-04-12T05:54:43.021Z,994.71
2023-04-12T06:01:03.015Z,994.65
2023-04-12T06:07:26.017Z,994.59
2023-04-12T06:13:46.118Z,994.53
2023-04-12T06:20:09.038Z,994.53
2023-04-12T06:26:37.362Z,994.42
2023-04-12T06:32:52.233Z,994.3
2023-04-12T06:39:12.037Z,994.2
2023-04-12T06:45:35.016Z,994.04
2023-04-12T06:51:55.018Z,993.98
2023-04-12T06:58:18.014Z,993.81
2023-04-12T07:04:38.030Z,993.69
2023-04-12T07:11:08.795Z,993.57
2023-04-12T07:17:22.118Z,993.51
2023-04-12T07:23:44.976Z,993.44
2023-04-12T07:30:05.181Z,993.34
2023-04-12T07:36:27.979Z,993.24
2023-04-12T07:42:48.010Z,993.06
2023-04-12T07:49:11.049Z,992.95
2023-04-12T07:55:31.007Z,992.81
2023-04-12T08:01:54.014Z,992.71
2023-04-12T08:08:14.067Z,992.71
2023-04-12T08:14:38.573Z,992.67
2023-04-12T08:20:57.013Z,992.65
2023-04-12T08:27:20.008Z,992.51
2023-04-12T08:33:40.012Z,992.55
2023-04-12T08:40:02.987Z,992.47
2023-04-12T09:02:13.214Z,992.29
2023-04-12T09:08:35.988Z,992.27
2023-04-12T09:14:56.041Z,992.16
2023-04-12T09:21:19.077Z,992.06
2023-04-12T09:27:38.995Z,991.98
2023-04-12T09:34:02.001Z,991.92
2023-04-12T09:40:22.041Z,991.9
2023-04-12T09:46:46.384Z,991.9
2023-04-12T09:53:04.996Z,991.88
2023-04-12T09:59:28.045Z,991.86
2023-04-12T10:05:47.983Z,991.8
2023-04-12T10:12:10.987Z,991.77
2023-04-12T10:18:31.015Z,991.65
2023-04-12T10:24:54.006Z,991.63
2023-04-12T10:31:14.027Z,991.57
2023-04-12T10:37:37.017Z,991.53
2023-04-12T10:43:56.984Z,991.47
2023-04-12T10:50:20.017Z,991.41
2023-04-12T10:56:40.241Z,991.41
2023-04-12T11:03:03.158Z,991.33
2023-04-12T11:09:22.988Z,991.22
2023-04-12T11:15:46.193Z,991.12
2023-04-12T11:22:05.994Z,991.35
2023-04-12T11:28:31.276Z,991.41
2023-04-12T11:34:49.196Z,991.51
2023-04-12T11:41:12.238Z,991.63
2023-04-12T11:47:32.024Z,991.73
2023-04-12T11:53:55.155Z,991.75
2023-04-12T12:00:15.009Z,991.77
2023-04-12T12:06:38.362Z,991.86
2023-04-12T12:12:58.023Z,991.9
2023-04-12T12:19:21.022Z,991.9
2023-04-12T12:25:41.186Z,991.92
2023-04-12T12:32:04.274Z,991.9
2023-04-12T12:38:29.002Z,991.84
2023-04-12T12:44:46.987Z,991.78
2023-04-12T12:51:07.156Z,991.67
2023-04-12T12:57:29.986Z,991.65
2023-04-12T13:03:50.414Z,991.63
2023-04-12T13:10:13.121Z,991.65
2023-04-12T13:16:33.042Z,991.71
2023-04-12T13:22:55.996Z,991.8
2023-04-12T13:29:17.301Z,991.78
2023-04-12T13:35:40.013Z,991.77
2023-04-12T13:42:00.007Z,991.77
2023-04-12T13:48:23.194Z,991.71
2023-04-12T13:54:43.109Z,991.63
2023-04-12T14:01:06.053Z,991.47
2023-04-12T14:25:05.992Z,991.37
2023-04-12T14:31:25.994Z,991.39
2023-04-12T14:37:49.005Z,991.41
2023-04-12T14:44:09.008Z,991.37
2023-04-12T14:50:31.994Z,991.33
2023-04-12T14:56:54.830Z,991.35
2023-04-12T15:03:15.205Z,991.41
2023-04-12T15:09:34.987Z,991.39
2023-04-12T15:15:58.003Z,991.31
2023-04-12T15:22:18.006Z,991.31
2023-04-12T15:28:41.007Z,991.49
2023-04-12T15:35:02.839Z,991.67
2023-04-12T15:41:24.016Z,991.98
2023-04-12T15:47:44.009Z,992.39
2023-04-12T15:54:07.043Z,992.65
2023-04-12T16:00:27.127Z,992.67
2023-04-12T16:06:49.988Z,992.75
2023-04-12T16:13:10.024Z,992.81
2023-04-12T16:19:33.031Z,992.85
2023-04-12T16:25:52.990Z,992.89
2023-04-12T16:32:16.066Z,992.97
2023-04-12T16:38:37.059Z,993.16
2023-04-12T16:45:00.002Z,993.28
2023-04-12T16:51:20.011Z,993.42
2023-04-12T16:57:43.018Z,993.51
2023-04-12T17:04:03.390Z,993.48
2023-04-12T17:10:26.036Z,993.38
2023-04-12T17:16:46.085Z,993.4
2023-04-12T17:23:08.987Z,993.34
2023-04-12T17:29:29.053Z,993.36
2023-04-12T17:35:52.029Z,993.36
2023-04-12T17:42:11.989Z,993.42
2023-04-12T17:48:35.329Z,993.42
2023-04-12T17:54:55.123Z,993.53
2023-04-12T18:01:18.015Z,993.59
2023-04-12T18:07:38.011Z,993.63
2023-04-12T18:14:01.048Z,993.65
2023-04-12T18:20:20.978Z,993.65
2023-04-12T18:26:44.025Z,993.69
2023-04-12T18:33:04.298Z,993.75
2023-04-12T18:39:26.995Z,993.83
2023-04-12T18:45:47.002Z,993.83
2023-04-12T18:52:10.010Z,993.87
2023-04-12T18:58:46.025Z,993.93
2023-04-12T19:04:52.989Z,993.96
2023-04-12T19:11:13.023Z,993.95
2023-04-12T19:34:36.997Z,993.96
2023-04-12T19:40:59.973Z,993.93
2023-04-12T19:47:19.990Z,994
2023-04-12T19:53:43.303Z,994
2023-04-12T20:00:03.021Z,994
2023-04-12T20:06:25.992Z,994.02
2023-04-12T20:12:46.070Z,993.98
2023-04-12T20:19:09.003Z,993.96
2023-04-12T20:25:29.014Z,993.91
2023-04-12T20:31:52.006Z,993.89
2023-04-12T20:38:11.984Z,993.93
2023-04-12T20:44:35.020Z,993.96
2023-04-12T20:50:55.018Z,993.98
2023-04-12T20:57:18.052Z,994.02
2023-04-12T21:03:38.134Z,994.04
2023-04-12T21:10:01.201Z,994.08
2023-04-12T21:16:21.025Z,994.16
2023-04-12T21:22:44.028Z,994.16
2023-04-12T21:29:04.041Z,994.16
2023-04-12T21:35:26.994Z,994.45
2023-04-12T21:41:46.975Z,994.55
2023-04-12T21:48:10.082Z,994.49
2023-04-12T21:54:29.979Z,994.47
2023-04-12T22:20:05.010Z,994.08
2023-04-12T22:26:24.977Z,993.96
2023-04-12T22:32:48.001Z,993.93
2023-04-12T22:39:08.037Z,993.93
2023-04-12T22:45:30.999Z,993.83
2023-04-12T22:51:51.016Z,993.77
2023-04-12T22:58:14.022Z,993.71
2023-04-12T23:04:34.152Z,993.57
2023-04-12T23:10:56.973Z,993.55
2023-04-12T23:17:17.154Z,993.49
2023-04-12T23:23:39.995Z,993.46
2023-04-12T23:30:00.019Z,993.46
2023-04-12T23:36:23.019Z,993.44
2023-04-12T23:42:43.013Z,993.4
2023-04-12T23:49:05.991Z,993.36
2023-04-12T23:55:26.020Z,993.36
